Stations météo

réclame
Mon MeteoGroup
Falsterbo A, Suède (2615): Température de l'air & dewpoint: 12.08.2018 02:00:00 - 18.08.2018 02:00:00 (CEST)Falsterbo A, Suède (2615): Vitesse du vent & gusts: 12.08.2018 02:00:00 - 18.08.2018 02:00:00 (CEST)Falsterbo A, Suède (2615): Direction du vent: 12.08.2018 02:00:00 - 18.08.2018 02:00:00 (CEST)Falsterbo A, Suède (2615): reduced air pressure: 12.08.2018 02:00:00 - 18.08.2018 02:00:00 (CEST)Falsterbo A, Suède (2615): Quantités de précipitations: 12.08.2018 02:00:00 - 18.08.2018 02:00:00 (CEST)
Date & Time tt [°C] td [°C] ff [km/h] ff [knt] fx [km/h] fx [knt] dd ppp [hPa] rr [mm]
18.08.2018 02:00:00 18,3 12,7 23 12 28 15 WNW 1018,4 0,0
18.08.2018 01:00:00 18,3 13,6 18 10 22 12 W 1018,1 0,0
18.08.2018 00:00:00 18,4 13,9 20 11 22 12 W 1018,0 0,0
17.08.2018 23:00:00 18,2 13,7 16 8 19 11 W 1017,8 0,0
17.08.2018 22:00:00 18,5 13,6 13 7 23 12 WNW 1017,4 0,0
17.08.2018 21:00:00 18,4 14,5 18 10 23 12 WNW 1017,0 0,0
17.08.2018 20:00:00 18,4 14,5 16 9 23 12 WNW 1016,7 0,0
17.08.2018 19:00:00 18,3 14,6 15 8 24 13 WNW 1016,3 0,0
17.08.2018 18:00:00 18,1 14,0 16 9 27 15 NW 1016,6 0,0
17.08.2018 17:00:00 19,4 14,0 23 12 39 21 NW 1016,4 0,0
17.08.2018 16:00:00 20,2 15,6 24 13 39 21 NW 1016,0 0,0
17.08.2018 15:00:00 21,5 14,6 20 11 27 15 W 1016,1 0,0
17.08.2018 14:00:00 23,4 14,4 11 6 16 9 WSW 1015,8 0,0
17.08.2018 13:00:00 23,5 13,7 12 6 16 9 NNW 1015,5 0,0
17.08.2018 12:00:00 22,6 14,2 10 5 15 8 NW 1015,6 0,0
17.08.2018 11:00:00 21,4 15,0 13 7 16 9 NW 1015,7 0,0
17.08.2018 10:00:00 20,6 14,7 13 7 18 10 NW 1015,3 0,0
17.08.2018 09:00:00 20,0 14,6 12 7 21 12 NW 1014,9 0,0
17.08.2018 08:00:00 19,7 14,9 14 8 21 12 NW 1014,7 0,0
17.08.2018 07:00:00 19,4 14,4 17 9 21 11 NW 1014,6 0,0
17.08.2018 06:00:00 19,5 15,8 13 7 20 11 WNW 1014,2 0,0
17.08.2018 05:00:00 19,4 16,4 16 9 19 10 NW 1013,8 0,0
17.08.2018 04:00:00 19,4 16,1 10 5 13 7 NNW 1013,8 0,0
17.08.2018 03:00:00 19,5 16,7 9 5 18 10 NNW 1013,8 0,0
17.08.2018 02:00:00 19,4 16,2 11 6 23 13 SSW 1013,8 0,0
17.08.2018 01:00:00 20,1 17,1 16 9 25 13 SSE 1013,8 0,0
17.08.2018 00:00:00 20,4 17,4 19 10 26 14 SSE 1013,9 0,0
16.08.2018 23:00:00 20,4 17,2 19 11 27 15 SSE 1013,9 0,0
16.08.2018 22:00:00 20,6 17,2 22 12 27 15 SSE 1014,1 0,0
16.08.2018 21:00:00 20,8 17,0 21 12 26 14 SE 1014,3 0,0
16.08.2018 20:00:00 21,1 17,0 20 11 26 14 SE 1014,2 0,0
16.08.2018 19:00:00 21,8 17,2 20 11 26 14 SE 1014,5 0,0
16.08.2018 18:00:00 22,6 17,5 19 10 24 13 SE 1014,9 0,0
16.08.2018 17:00:00 23,2 17,2 16 8 26 14 SE 1015,2 0,0
16.08.2018 16:00:00 24,8 16,5 17 9 31 17 S 1015,6 0,0
16.08.2018 15:00:00 25,7 16,8 21 11 32 17 S 1015,9 0,0
16.08.2018 14:00:00 24,8 16,5 23 13 34 18 S 1016,2 0,0
16.08.2018 13:00:00 24,8 16,2 27 14 34 18 S 1016,3 0,0
16.08.2018 12:00:00 24,1 17,1 27 14 33 18 S 1016,4 0,0
16.08.2018 11:00:00 22,9 16,4 26 14 31 17 S 1016,6 0,0
16.08.2018 10:00:00 21,8 16,7 22 12 29 16 S 1016,7 0,0
16.08.2018 09:00:00 20,9 16,5 19 10 25 14 SSW 1016,8 0,0
16.08.2018 08:00:00 20,0 16,4 21 11 25 13 SSW 1016,8 0,0
16.08.2018 07:00:00 19,7 15,8 12 7 16 9 S 1016,9 0,0
16.08.2018 06:00:00 19,3 14,8 9 5 18 10 SW 1017,2 0,0
16.08.2018 05:00:00 19,5 15,2 13 7 18 10 SW 1017,3 0,0
16.08.2018 04:00:00 19,3 15,6 12 6 25 13 SW 1017,2 0,0
16.08.2018 03:00:00 19,4 14,9 11 6 25 13 WSW 1017,1 0,0
16.08.2018 02:00:00 19,3 15,2 19 10 26 14 WSW 1017,3 0,0
16.08.2018 01:00:00 19,5 14,9 21 12 26 14 WSW 1017,4 0,0
16.08.2018 00:00:00 19,5 14,9 19 11 25 13 WSW 1017,1 0,0
15.08.2018 23:00:00 19,8 15,2 19 10 24 13 WSW 1017,0 0,0
15.08.2018 22:00:00 20,0 15,4 16 9 23 13 WSW 1016,9 0,0
15.08.2018 21:00:00 20,2 15,4 19 10 27 15 WSW 1016,7 0,0
15.08.2018 20:00:00 20,6 15,8 14 8 27 15 WSW 1016,5 0,0
15.08.2018 19:00:00 20,7 15,7 19 11 25 14 SW 1016,2 0,0
15.08.2018 18:00:00 20,5 14,8 16 8 35 19 SW 1016,2 0,0
15.08.2018 17:00:00 21,8 14,9 20 11 35 19 W 1016,2 0,0
15.08.2018 16:00:00 20,9 15,2 17 9 28 15 SW 1016,2 0,0
15.08.2018 15:00:00 21,9 14,8 19 10 28 15 SW 1016,1 0,0
15.08.2018 14:00:00 22,1 14,0 13 7 20 11 WSW 1015,9 0,0
15.08.2018 13:00:00 21,3 11,9 11 6 26 14 W 1015,7 0,0
15.08.2018 12:00:00 20,9 11,2 16 8 27 14 WNW 1015,4 0,0
15.08.2018 11:00:00 20,3 13,3 20 11 35 19 W 1015,3 0,0
15.08.2018 10:00:00 18,6 13,0 23 13 40 22 WNW 1014,6 0,0
15.08.2018 09:00:00 18,2 13,5 27 15 41 22 NW 1014,0 0,0
15.08.2018 08:00:00 17,7 13,0 34 19 41 22 WNW 1013,4 0,0
15.08.2018 07:00:00 17,5 13,6 32 18 40 22 NW 1012,7 0,0
15.08.2018 06:00:00 17,6 13,7 32 17 42 23 NW 1012,0 0,0
15.08.2018 05:00:00 18,3 14,2 34 18 42 23 NW 1011,6 0,0
15.08.2018 04:00:00 18,6 15,3 30 16 36 19 WNW 1011,3 0,0
15.08.2018 03:00:00 18,7 15,4 29 16 35 19 WNW 1011,0 0,0
15.08.2018 02:00:00 18,7 15,8 27 15 35 19 WNW 1010,7 0,0
15.08.2018 01:00:00 18,7 15,4 27 15 36 19 WNW 1010,4 0,0
15.08.2018 00:00:00 19,0 15,5 27 15 38 21 W 1009,9 0,0
14.08.2018 23:00:00 19,0 14,5 32 17 41 22 WNW 1009,5 0,0
14.08.2018 22:00:00 19,0 14,9 32 18 43 23 NW 1009,2 0,0
14.08.2018 21:00:00 19,2 14,9 31 17 43 23 NW 1008,7 0,0
14.08.2018 20:00:00 19,6 14,6 33 18 40 22 NW 1008,0 0,0
14.08.2018 19:00:00 20,4 15,0 32 17 39 21 NW 1007,3 0,0
14.08.2018 18:00:00 20,0 16,0 19 10 29 16 WNW 1006,9 0,2
14.08.2018 17:00:00 19,3 16,0 5 3 23 13 NW 1006,6 4,8
14.08.2018 16:00:00 21,6 15,2 14 7 25 13 WSW 1006,3 0,0
14.08.2018 15:00:00 21,0 16,2 14 8 29 16 SW 1006,1 0,2
14.08.2018 14:00:00 19,8 15,7 22 12 29 16 WSW 1006,1 0,4
14.08.2018 13:00:00 22,0 15,8 22 12 28 15 SW 1005,6 0,0
14.08.2018 12:00:00 21,3 15,6 20 11 30 16 SW 1005,5 0,0
14.08.2018 11:00:00 20,4 15,6 21 12 36 19 SW 1005,3 0,0
14.08.2018 10:00:00 19,8 15,9 26 14 36 19 SW 1005,2 0,0
14.08.2018 09:00:00 18,7 15,8 24 13 32 17 SW 1005,2 0,0
14.08.2018 08:00:00 18,7 15,6 24 13 32 17 WSW 1004,7 0,0
14.08.2018 07:00:00 18,9 16,5 23 12 30 16 WSW 1004,3 0,0
14.08.2018 06:00:00 19,2 15,9 21 11 27 15 SW 1004,1 0,0
14.08.2018 05:00:00 18,6 15,5 14 8 43 23 ESE 1004,3 0,0
14.08.2018 04:00:00 18,6 15,7 26 14 43 23 ESE 1004,5 0,0
14.08.2018 03:00:00 18,2 15,6 27 15 41 22 E 1004,7 0,0
14.08.2018 02:00:00 18,2 15,3 31 17 40 22 E 1005,3 0,0
14.08.2018 01:00:00 18,1 15,0 25 14 39 21 E 1006,0 0,0
14.08.2018 00:00:00 18,0 15,3 29 16 44 24 E 1006,1 0,2
13.08.2018 23:00:00 17,9 15,2 25 13 44 24 E 1006,4 0,0
13.08.2018 22:00:00 18,1 15,5 35 19 42 23 E 1006,9 0,3
13.08.2018 21:00:00 18,5 15,4 31 17 37 20 E 1007,3 0,0
13.08.2018 20:00:00 18,6 14,9 27 15 39 21 E 1006,9 0,0
13.08.2018 19:00:00 18,8 15,5 30 16 39 21 E 1006,8 0,0
13.08.2018 18:00:00 18,7 15,6 22 12 29 16 E 1007,6 0,0
13.08.2018 17:00:00 19,1 16,1 17 9 24 13 E 1008,1 0,0
13.08.2018 16:00:00 19,5 16,2 16 9 24 13 E 1008,1 0,0
13.08.2018 15:00:00 20,1 16,5 18 10 25 13 SE 1008,5 0,0
13.08.2018 14:00:00 20,7 15,9 16 9 33 18 SSE 1008,8 0,0
13.08.2018 13:00:00 21,3 14,5 21 11 33 18 S 1008,9 0,0
13.08.2018 12:00:00 20,5 16,7 21 12 30 16 SSE 1009,1 0,0
13.08.2018 11:00:00 19,8 15,7 22 12 28 15 SSE 1009,1 0,0
13.08.2018 10:00:00 18,7 15,6 20 11 28 15 SSE 1009,1 0,0
13.08.2018 09:00:00 17,7 14,8 22 12 27 15 S 1009,1 0,0
13.08.2018 08:00:00 17,2 14,7 16 9 28 15 S 1009,0 0,0
13.08.2018 07:00:00 17,0 14,6 19 10 31 17 SSW 1009,0 0,2
13.08.2018 06:00:00 17,3 14,8 18 10 33 18 SW 1009,2 0,6
13.08.2018 05:00:00 17,1 14,7 23 13 36 20 SW 1009,4 0,8
13.08.2018 04:00:00 16,7 14,7 25 14 37 20 SSW 1009,6 2,0
13.08.2018 03:00:00 16,6 14,8 29 15 37 20 SSW 1009,9 2,9
13.08.2018 02:00:00 16,3 14,5 26 14 32 17 SSW 1010,2 4,4
13.08.2018 01:00:00 14,6 12,8 21 11 27 15 ESE 1010,9 4,0
13.08.2018 00:00:00 14,0 11,7 17 9 23 12 SE 1011,5 2,4
12.08.2018 23:00:00 13,7 11,0 13 7 18 10 ESE 1011,9 1,7
12.08.2018 22:00:00 13,6 10,2 6 3 19 11 SSE 1012,3 1,2
12.08.2018 21:00:00 14,0 10,2 11 6 24 13 WSW 1012,8 1,3
12.08.2018 20:00:00 14,4 11,0 16 9 24 13 SW 1012,8 1,0
12.08.2018 19:00:00 14,8 9,2 15 8 24 13 W 1013,4 0,8
12.08.2018 18:00:00 15,7 11,1 14 8 36 20 W 1013,7 0,7
12.08.2018 17:00:00 16,5 11,2 24 13 43 23 WNW 1014,0 0,0
12.08.2018 16:00:00 18,1 9,7 31 17 43 23 W 1014,2 0,0
12.08.2018 15:00:00 18,8 10,1 31 17 42 23 W 1014,2 0,2
12.08.2018 14:00:00 17,1 11,1 25 14 53 28 WNW 1014,5 0,0
12.08.2018 13:00:00 18,2 11,3 34 18 53 28 WSW 1014,8 0,0
12.08.2018 12:00:00 20,0 9,8 27 15 43 23 W 1014,8 0,0
12.08.2018 11:00:00 18,9 10,5 29 16 45 24 W 1014,9 0,0
12.08.2018 10:00:00 17,7 10,1 34 18 46 25 W 1015,1 0,0
12.08.2018 09:00:00 16,7 9,6 37 20 52 28 W 1015,2 0,0
12.08.2018 08:00:00 16,4 10,5 38 20 53 28 W 1015,1 0,0
12.08.2018 07:00:00 16,0 10,7 42 23 53 28 W 1014,8 0,0
12.08.2018 06:00:00 15,6 10,1 41 22 55 30 W 1014,6 0,0
12.08.2018 05:00:00 15,3 10,1 39 21 64 35 W 1014,6 0,0
12.08.2018 04:00:00 15,6 9,0 44 24 67 36 W 1014,6 0,0
12.08.2018 03:00:00 16,1 8,6 51 27 67 36 WNW 1014,6 0,0
12.08.2018 02:00:00 15,9 10,2 43 23 62 34 W 1014,5 0,0

tt = Température de l'air
td = dewpoint
ff = Vitesse du vent
fx = gusts
dd = Direction du vent
ppp = reduced air pressure
rr = Quantités de précipitations

stations d'obs. à proximité